Time;durP1;ratioP1;P1;durP2;ratioP2;P2;SDS_P1;SDS_P2;PMS_P1;PMS_P2;Temp;Humidity;BMP_temperature;BMP_pressure;BME280_temperature;BME280_humidity;BME280_pressure;Samples;Min_cycle;Max_cycle;Signal;HPM_P1;HPM_P2
2023/09/28 00:02:57;;;;;;;4.05;2.70;;;13.80;99.90;;;13.51;100.00;97355.34;5013400;28;20052;-36
2023/09/28 00:05:23;;;;;;;3.90;2.90;;;13.80;99.90;;;13.48;100.00;97351.06;5016038;28;20033;-36
2023/09/28 00:07:49;;;;;;;3.75;2.78;;;13.70;99.90;;;13.47;100.00;97348.50;5008907;28;20065;-36
2023/09/28 00:10:16;;;;;;;5.40;3.33;;;13.70;99.90;;;13.48;100.00;97344.94;5013446;28;20052;-36
2023/09/28 00:12:46;;;;;;;3.92;2.85;;;13.80;99.90;;;13.51;100.00;97358.88;5012467;28;20084;-36
2023/09/28 00:15:12;;;;;;;5.13;2.90;;;13.80;99.90;;;13.53;100.00;97342.88;5010524;28;20027;-37
2023/09/28 00:17:39;;;;;;;3.42;2.65;;;13.80;99.90;;;13.47;100.00;97343.19;5012374;28;20025;-37
2023/09/28 00:20:13;;;;;;;5.45;2.90;;;13.80;99.90;;;13.58;100.00;97355.91;5009368;28;20045;-36
2023/09/28 00:22:41;;;;;;;4.13;2.67;;;13.80;99.90;;;13.61;100.00;97359.28;5012397;28;20029;-36
2023/09/28 00:25:11;;;;;;;5.30;3.03;;;13.90;99.90;;;13.63;100.00;97361.84;5010854;28;20652;-36
2023/09/28 00:27:38;;;;;;;4.93;3.10;;;13.90;99.90;;;13.65;100.00;97366.13;5014218;28;20490;-37
2023/09/28 00:30:09;;;;;;;4.75;2.90;;;13.90;99.90;;;13.65;100.00;97374.06;5007644;28;20040;-37
2023/09/28 00:32:35;;;;;;;3.67;2.67;;;13.90;99.90;;;13.63;100.00;97370.66;5013325;28;20037;-36
2023/09/28 00:35:04;;;;;;;4.35;2.72;;;13.90;99.90;;;13.62;100.00;97360.13;5011697;28;20045;-37
2023/09/28 00:37:31;;;;;;;4.30;2.75;;;13.90;99.90;;;13.60;100.00;97364.66;5004694;28;20061;-37
2023/09/28 00:39:56;;;;;;;4.65;3.25;;;13.90;99.90;;;13.56;100.00;97364.78;5005474;28;20132;-37
2023/09/28 00:42:24;;;;;;;5.40;2.90;;;13.90;99.90;;;13.54;100.00;97365.81;5012427;28;20037;-36
2023/09/28 00:44:51;;;;;;;3.72;2.85;;;13.80;99.90;;;13.53;100.00;97378.22;5012319;28;20164;-37
2023/09/28 00:47:18;;;;;;;4.25;2.70;;;13.80;99.90;;;13.47;100.00;97369.69;4995801;28;20441;-38
2023/09/28 00:49:45;;;;;;;4.07;2.88;;;13.80;99.90;;;13.54;100.00;97390.50;5011467;28;20038;-37
2023/09/28 00:52:17;;;;;;;5.00;2.85;;;13.80;99.90;;;13.62;100.00;97378.66;5011115;28;20057;-37
2023/09/28 00:54:44;;;;;;;;;;;13.80;99.90;;;13.62;100.00;97382.19;5011867;28;20040;-37
2023/09/28 00:57:10;;;;;;;4.45;2.95;;;13.90;99.90;;;13.62;100.00;97381.31;5010935;28;20404;-37
2023/09/28 00:59:36;;;;;;;4.68;2.65;;;13.90;99.90;;;13.61;100.00;97377.81;5008662;28;20643;-37
2023/09/28 01:02:02;;;;;;;3.53;2.50;;;13.90;99.90;;;13.62;100.00;97378.66;5010103;28;20061;-38
2023/09/28 01:04:28;;;;;;;5.90;2.70;;;13.90;99.90;;;13.67;100.00;97382.81;5011431;28;20653;-37
2023/09/28 01:06:54;;;;;;;3.75;2.83;;;13.90;99.90;;;13.72;100.00;97374.63;5009961;28;20043;-37
2023/09/28 01:09:21;;;;;;;5.68;3.10;;;13.90;99.90;;;13.78;100.00;97373.47;5012175;28;20041;-37
2023/09/28 01:11:47;;;;;;;5.03;3.13;;;14.00;99.90;;;13.73;100.00;97360.47;5009649;28;20519;-37
2023/09/28 01:14:13;;;;;;;4.03;2.80;;;14.10;99.90;;;13.80;100.00;97376.91;5013531;28;20030;-38
2023/09/28 01:16:39;;;;;;;4.65;3.35;;;14.10;99.90;;;13.74;100.00;97367.47;5016504;28;20221;-37
2023/09/28 01:19:06;;;;;;;6.40;2.75;;;14.00;99.90;;;13.72;100.00;97378.13;5012990;28;20130;-37
2023/09/28 01:21:32;;;;;;;3.85;2.88;;;14.00;99.90;;;13.69;100.00;97380.97;5012733;28;20026;-37
2023/09/28 01:23:58;;;;;;;4.63;3.08;;;14.00;99.90;;;13.67;100.00;97380.16;5015591;28;20087;-37
2023/09/28 01:26:27;;;;;;;3.70;2.67;;;13.90;99.90;;;13.66;100.00;97378.47;5014986;28;20041;-38
2023/09/28 01:28:56;;;;;;;5.45;2.70;;;13.90;99.90;;;13.66;100.00;97385.56;5014757;28;20041;-37
2023/09/28 01:31:22;;;;;;;4.25;2.53;;;13.90;99.90;;;13.65;100.00;97378.53;5015610;28;20052;-38
2023/09/28 01:33:48;;;;;;;4.50;2.50;;;13.90;99.90;;;13.66;100.00;97380.25;5016111;28;20037;-37
2023/09/28 01:36:15;;;;;;;3.92;2.65;;;13.90;99.90;;;13.66;100.00;97380.25;5006820;28;20025;-37
2023/09/28 01:39:02;;;;;;;4.18;2.72;;;13.90;99.90;;;13.66;100.00;97378.47;5010792;28;20026;-37
2023/09/28 01:41:28;;;;;;;5.13;3.03;;;13.90;99.90;;;13.65;100.00;97365.28;4981047;28;20030;-38
2023/09/28 01:43:54;;;;;;;3.60;2.65;;;13.90;99.90;;;13.64;100.00;97371.50;5017042;28;20433;-37
2023/09/28 01:46:19;;;;;;;4.68;2.90;;;13.90;99.90;;;13.64;100.00;97371.50;5013354;28;20037;-37
2023/09/28 01:48:45;;;;;;;4.60;2.60;;;13.90;99.90;;;13.64;100.00;97366.19;5013687;28;20060;-37
2023/09/28 01:51:11;;;;;;;3.70;2.83;;;13.90;99.90;;;13.63;100.00;97368.00;5011101;28;20393;-37
2023/09/28 01:53:37;;;;;;;7.07;2.92;;;13.90;99.90;;;13.64;100.00;97363.56;5015786;28;20064;-38
2023/09/28 01:56:04;;;;;;;3.45;2.58;;;13.90;99.90;;;13.63;100.00;97364.50;5014693;28;20486;-37
2023/09/28 01:58:30;;;;;;;5.50;3.03;;;13.90;99.90;;;13.64;100.00;97372.38;5014984;28;20052;-37
2023/09/28 02:00:56;;;;;;;4.72;2.83;;;13.90;99.90;;;13.63;100.00;97369.81;5012882;28;20671;-37
2023/09/28 02:03:22;;;;;;;5.38;2.88;;;13.90;99.90;;;13.63;100.00;97370.66;5010302;28;20065;-37
2023/09/28 02:05:52;;;;;;;4.35;2.85;;;13.90;99.90;;;13.63;100.00;97368.00;5005968;28;20039;-40
2023/09/28 02:08:18;;;;;;;5.55;3.17;;;13.90;99.90;;;13.56;100.00;97353.34;5010294;28;20133;-37
2023/09/28 02:10:44;;;;;;;4.20;2.58;;;13.90;99.90;;;13.61;100.00;97361.06;5014739;28;23580;-39
2023/09/28 02:13:10;;;;;;;6.20;3.17;;;13.90;99.90;;;13.61;100.00;97369.03;5008000;28;20025;-38
2023/09/28 02:15:36;;;;;;;5.80;2.88;;;13.80;99.90;;;13.58;100.00;97367.38;5014010;28;20488;-38
2023/09/28 02:18:01;;;;;;;4.95;3.28;;;13.80;99.90;;;13.57;100.00;97363.00;5009867;28;20029;-37
2023/09/28 02:20:30;;;;;;;6.55;3.22;;;13.80;99.90;;;13.51;100.00;97363.31;4991258;28;20503;-37
2023/09/28 02:22:55;;;;;;;3.40;2.75;;;13.80;99.90;;;13.52;100.00;97365.88;5008811;28;20122;-37
2023/09/28 02:25:24;;;;;;;4.80;2.90;;;13.80;99.90;;;13.49;100.00;97367.81;5011010;28;20512;-37
2023/09/28 02:27:51;;;;;;;6.50;3.08;;;13.80;99.90;;;13.49;100.00;97378.41;5016076;28;20246;-37
2023/09/28 02:30:22;;;;;;;4.78;3.03;;;13.80;99.90;;;13.46;100.00;97379.44;5004541;28;20026;-37
2023/09/28 02:32:49;;;;;;;4.57;2.70;;;13.80;99.90;;;13.44;100.00;97375.13;5005236;28;20107;-37
2023/09/28 02:35:16;;;;;;;4.32;2.95;;;13.70;99.90;;;13.43;100.00;97384.03;5010403;28;20037;-37
2023/09/28 02:37:44;;;;;;;4.70;3.00;;;13.70;99.90;;;13.42;100.00;97377.84;5007578;28;20032;-37
2023/09/28 02:40:11;;;;;;;4.60;3.10;;;13.70;99.90;;;13.43;100.00;97381.38;5011338;28;20041;-36
2023/09/28 02:42:37;;;;;;;5.40;3.10;;;13.70;99.90;;;13.43;100.00;97390.19;5008316;28;20038;-37
2023/09/28 02:45:11;;;;;;;4.82;3.17;;;13.70;99.90;;;13.45;100.00;97395.41;4996186;28;20226;-37
2023/09/28 02:47:41;;;;;;;5.70;2.58;;;13.70;99.90;;;13.46;100.00;97395.34;5009476;28;20229;-36
2023/09/28 02:50:11;;;;;;;4.97;2.83;;;13.70;99.90;;;13.47;100.00;97393.53;5008952;28;20450;-37
2023/09/28 02:52:42;;;;;;;4.80;3.15;;;13.70;99.90;;;13.45;100.00;97396.25;5011976;28;20482;-37
2023/09/28 02:55:13;;;;;;;4.53;2.97;;;13.70;99.90;;;13.44;100.00;97404.28;5010959;28;20033;-36
2023/09/28 02:57:39;;;;;;;6.57;3.25;;;13.70;99.90;;;13.42;100.00;97404.34;5002682;28;20018;-37
2023/09/28 03:00:30;;;;;;;4.40;3.05;;;13.70;99.90;;;13.41;100.00;97404.44;5011309;28;20037;-37
2023/09/28 03:03:00;;;;;;;4.05;2.85;;;13.70;99.90;;;13.41;100.00;97397.34;5006095;28;20037;-38
2023/09/28 03:05:27;;;;;;;4.93;3.25;;;13.70;99.90;;;13.34;100.00;97372.09;5008829;28;20472;-37
2023/09/28 03:07:53;;;;;;;6.55;3.15;;;13.70;99.90;;;13.48;100.00;97392.63;5008774;28;20033;-38
2023/09/28 03:10:19;;;;;;;3.90;3.03;;;13.70;99.90;;;13.51;100.00;97401.28;5009165;28;20467;-38
2023/09/28 03:12:46;;;;;;;6.18;3.88;;;13.80;99.90;;;13.54;100.00;97403.75;5010970;28;20040;-37
2023/09/28 03:15:13;;;;;;;4.75;3.13;;;13.80;99.90;;;13.58;100.00;97404.47;5011628;28;20205;-37
2023/09/28 03:17:40;;;;;;;5.78;3.03;;;13.90;99.90;;;13.61;100.00;97408.78;5009013;28;20667;-37
2023/09/28 03:20:14;;;;;;;4.93;2.90;;;13.90;99.90;;;13.63;100.00;97396.28;5011555;28;20091;-36
2023/09/28 03:22:42;;;;;;;5.85;3.42;;;13.90;99.90;;;13.66;100.00;97396.16;5014239;28;20053;-36
2023/09/28 03:25:11;;;;;;;8.05;3.10;;;13.90;99.90;;;13.66;100.00;97406.75;5010619;28;20037;-37
2023/09/28 03:27:37;;;;;;;4.80;2.88;;;13.90;99.90;;;13.49;100.00;97384.56;5009942;28;20057;-37
2023/09/28 03:30:09;;;;;;;5.10;3.20;;;13.90;99.90;;;13.66;100.00;97401.47;5008767;28;20083;-37
2023/09/28 03:32:35;;;;;;;4.57;3.15;;;13.90;99.90;;;13.64;100.00;97404.19;5012235;28;20044;-37
2023/09/28 03:35:03;;;;;;;5.05;3.10;;;13.90;99.90;;;13.65;100.00;97407.69;5013362;28;20041;-37
2023/09/28 03:37:29;;;;;;;5.32;2.88;;;13.90;99.90;;;13.65;100.00;97421.78;5011447;28;20026;-37
2023/09/28 03:39:58;;;;;;;4.00;2.83;;;13.90;99.90;;;13.65;100.00;97423.56;5012080;28;20036;-37
2023/09/28 03:42:23;;;;;;;3.65;2.72;;;13.90;99.90;;;13.64;100.00;97416.53;5008029;28;20076;-36
2023/09/28 03:44:49;;;;;;;4.70;3.05;;;13.90;99.90;;;13.58;100.00;97403.59;5012526;28;20033;-35
2023/09/28 03:47:15;;;;;;;10.00;3.47;;;13.90;99.90;;;13.63;100.00;97407.75;5014592;28;20116;-38
2023/09/28 03:49:40;;;;;;;4.72;3.30;;;13.90;99.90;;;13.65;100.00;97418.28;5011592;28;20041;-36
2023/09/28 03:52:06;;;;;;;7.32;2.97;;;13.90;99.90;;;13.67;100.00;97409.31;5014220;28;20029;-37
2023/09/28 03:54:32;;;;;;;4.13;3.05;;;14.00;99.90;;;13.69;100.00;97402.16;5005006;28;20030;-36
2023/09/28 03:56:58;;;;;;;4.53;2.80;;;14.00;99.90;;;13.71;100.00;97395.00;5011314;28;20025;-37
2023/09/28 03:59:23;;;;;;;4.45;3.00;;;14.00;99.90;;;13.73;100.00;97400.22;5011044;28;20025;-36
2023/09/28 04:01:50;;;;;;;3.80;2.88;;;14.00;99.90;;;13.73;100.00;97398.41;4995607;28;20088;-38
2023/09/28 04:04:15;;;;;;;4.85;2.90;;;14.00;99.90;;;13.72;100.00;97406.44;5012331;28;20052;-36
2023/09/28 04:06:41;;;;;;;4.28;3.00;;;14.00;99.90;;;13.72;100.00;97415.25;5012245;28;20494;-36
2023/09/28 04:09:07;;;;;;;4.32;3.00;;;14.00;99.90;;;13.73;100.00;97416.97;5011786;28;20029;-37
2023/09/28 04:11:34;;;;;;;6.47;3.13;;;14.00;99.90;;;13.71;100.00;97415.31;5009924;28;20069;-37
2023/09/28 04:14:03;;;;;;;5.90;3.20;;;14.00;99.90;;;13.73;100.00;97416.97;5008587;28;20017;-36
2023/09/28 04:16:28;;;;;;;5.10;3.20;;;14.00;99.90;;;13.72;100.00;97430.28;5003371;28;20045;-36
2023/09/28 04:18:54;;;;;;;3.70;2.80;;;14.00;99.90;;;13.73;100.00;97429.38;5011552;28;20038;-36
2023/09/28 04:21:20;;;;;;;4.43;2.90;;;14.00;99.90;;;13.72;100.00;97423.19;5010483;28;20041;-36
2023/09/28 04:23:45;;;;;;;3.78;3.13;;;14.00;99.90;;;13.70;100.00;97429.50;4995355;28;20040;-36
2023/09/28 04:26:11;;;;;;;3.90;2.90;;;13.90;99.90;;;13.65;100.00;97442.13;5010398;28;20127;-36
2023/09/28 04:28:37;;;;;;;5.05;3.30;;;13.90;99.90;;;13.64;100.00;97448.34;5008449;28;20068;-36
2023/09/28 04:31:03;;;;;;;5.28;3.40;;;13.90;99.90;;;13.59;100.00;97439.78;5010233;28;20045;-36
2023/09/28 04:33:29;;;;;;;5.55;3.10;;;13.80;99.90;;;13.54;100.00;97440.00;5011119;28;20034;-37
2023/09/28 04:35:55;;;;;;;6.45;3.45;;;13.80;99.90;;;13.55;100.00;97447.03;5003449;28;20030;-36
2023/09/28 04:38:22;;;;;;;5.63;3.28;;;13.80;99.90;;;13.42;100.00;97417.59;5007102;28;20029;-37
2023/09/28 04:40:47;;;;;;;7.43;3.10;;;13.80;99.90;;;13.51;100.00;97430.41;5009398;28;20885;-38
2023/09/28 04:43:13;;;;;;;5.90;3.30;;;13.80;99.90;;;13.53;100.00;97428.56;5007380;28;20025;-37
2023/09/28 04:45:39;;;;;;;4.60;2.78;;;13.80;99.90;;;13.51;100.00;97425.13;5004460;28;20109;-38
2023/09/28 04:48:05;;;;;;;5.68;3.38;;;13.80;99.90;;;13.55;100.00;97424.03;5009414;28;20037;-37
2023/09/28 04:50:30;;;;;;;5.32;3.15;;;13.80;99.90;;;13.56;100.00;97417.78;5005655;28;20061;-38
2023/09/28 04:52:56;;;;;;;4.05;2.83;;;13.80;99.90;;;13.60;100.00;97422.94;5009655;28;20069;-38
2023/09/28 04:55:23;;;;;;;6.50;3.28;;;13.90;99.90;;;13.59;100.00;97423.88;5019106;28;20025;-37
2023/09/28 04:57:48;;;;;;;4.93;3.10;;;13.90;99.90;;;13.63;100.00;97428.09;5016654;28;20037;-38
2023/09/28 05:00:16;;;;;;;3.75;2.83;;;13.90;99.90;;;13.63;100.00;97415.69;5011557;28;20520;-38
2023/09/28 05:02:45;;;;;;;6.68;3.30;;;13.90;99.90;;;13.64;100.00;97427.16;5010961;28;20029;-37
2023/09/28 05:05:12;;;;;;;4.10;2.95;;;13.90;99.90;;;13.62;100.00;97421.94;5016121;28;20281;-37
2023/09/28 05:07:39;;;;;;;4.90;3.47;;;13.90;99.90;;;13.64;100.00;97424.50;5013897;28;20033;-37
2023/09/28 05:10:05;;;;;;;4.32;3.03;;;13.90;99.90;;;13.64;100.00;97430.69;5013942;28;20556;-37
2023/09/28 05:12:32;;;;;;;4.45;3.10;;;13.90;99.90;;;13.68;100.00;97428.72;5004341;28;20045;-36
2023/09/28 05:14:59;;;;;;;4.22;3.10;;;13.90;99.90;;;13.72;100.00;97433.78;5018378;28;20076;-36
2023/09/28 05:17:24;;;;;;;3.88;2.97;;;14.00;99.90;;;13.72;100.00;97423.19;5009782;28;20116;-37
2023/09/28 05:19:50;;;;;;;4.78;3.05;;;14.00;99.90;;;13.79;100.00;97439.66;5013525;28;21005;-37
2023/09/28 05:22:17;;;;;;;5.40;3.22;;;14.10;99.90;;;13.81;100.00;97452.84;5013955;28;20149;-36
2023/09/28 05:24:43;;;;;;;6.10;3.65;;;14.10;99.90;;;13.86;100.00;97454.31;4996894;28;20057;-37
2023/09/28 05:27:58;;;;;;;5.45;3.05;;;14.10;99.90;;;13.90;100.00;97457.69;5015323;28;20044;-36
2023/09/28 05:30:24;;;;;;;4.55;3.20;;;14.20;99.90;;;13.88;100.00;97438.34;5015317;28;20057;-37
2023/09/28 05:32:50;;;;;;;4.85;3.35;;;14.20;99.90;;;13.87;100.00;97448.09;5015179;28;20159;-37
2023/09/28 05:35:15;;;;;;;6.60;3.50;;;14.20;99.90;;;13.81;100.00;97437.78;5021397;28;20029;-37
2023/09/28 05:37:41;;;;;;;5.53;3.45;;;14.20;99.90;;;13.89;100.00;97456.84;5019561;28;20034;-38
2023/09/28 05:40:08;;;;;;;5.78;3.38;;;14.20;99.90;;;13.90;100.00;97453.22;5018966;28;20080;-37
2023/09/28 05:42:34;;;;;;;5.82;3.45;;;14.20;99.90;;;13.87;100.00;97448.09;5015907;28;20052;-37
2023/09/28 05:45:00;;;;;;;5.75;3.72;;;14.20;99.90;;;13.95;100.00;97468.94;5011941;28;20029;-37
2023/09/28 05:47:26;;;;;;;8.75;4.05;;;14.20;99.90;;;13.96;100.00;97480.38;5014233;28;20049;-37
2023/09/28 05:49:52;;;;;;;6.00;3.67;;;14.30;99.90;;;14.01;100.00;97481.00;5010143;28;20593;-37
2023/09/28 05:52:18;;;;;;;5.50;3.28;;;14.30;99.90;;;13.94;100.00;97464.53;5012160;28;20430;-37
2023/09/28 05:54:45;;;;;;;6.05;3.63;;;14.30;99.90;;;14.06;100.00;97490.47;5015077;28;20029;-37
2023/09/28 05:57:12;;;;;;;6.22;3.88;;;14.40;99.90;;;14.13;100.00;97491.03;5014188;28;20056;-36
2023/09/28 05:59:38;;;;;;;5.80;3.47;;;14.40;99.90;;;14.12;100.00;97478.69;5016024;28;20605;-37
2023/09/28 06:02:04;;;;;;;6.88;3.28;;;14.50;99.90;;;14.28;100.00;97489.38;5010742;28;20104;-37
2023/09/28 06:04:30;;;;;;;3.95;3.05;;;14.50;99.90;;;14.35;100.00;97498.75;5007567;28;20108;-38
2023/09/28 06:06:56;;;;;;;5.15;3.42;;;14.60;99.90;;;14.42;100.00;97491.34;5014955;28;20030;-37
2023/09/28 06:09:22;;;;;;;5.60;3.42;;;14.70;99.90;;;14.53;100.00;97502.25;5014393;28;20295;-36
2023/09/28 06:11:48;;;;;;;5.78;3.25;;;14.80;99.90;;;14.63;100.00;97494.72;4998343;28;20082;-37
2023/09/28 06:14:15;;;;;;;4.82;3.40;;;14.90;99.90;;;14.73;100.00;97503.06;5017967;28;20068;-37
2023/09/28 06:16:42;;;;;;;5.93;3.13;;;15.00;99.90;;;14.81;100.00;97493.75;5009762;28;20061;-37
2023/09/28 06:19:14;;;;;;;4.68;3.40;;;15.10;99.90;;;14.84;100.00;97487.41;5009295;28;20032;-36
2023/09/28 06:21:40;;;;;;;6.78;3.38;;;15.10;99.90;;;14.91;100.00;97488.81;5011787;28;20084;-37
2023/09/28 06:24:06;;;;;;;6.25;3.50;;;15.20;99.90;;;14.95;100.00;97478.88;5017430;28;20185;-37
2023/09/28 06:26:33;;;;;;;7.13;3.75;;;15.20;99.90;;;14.98;100.00;97482.22;5011814;28;20042;-37
2023/09/28 06:28:59;;;;;;;5.38;3.22;;;15.20;99.90;;;15.04;100.00;97478.41;5000324;28;20035;-37
2023/09/28 06:31:25;;;;;;;5.47;3.45;;;15.20;99.90;;;15.08;100.00;97479.97;5011579;28;20809;-39
2023/09/28 06:33:50;;;;;;;5.82;3.63;;;15.20;99.90;;;14.72;100.00;97419.91;5017103;28;20037;-38
2023/09/28 06:36:18;;;;;;;5.60;3.30;;;15.30;99.90;;;15.16;100.00;97484.84;5014026;28;20037;-37
2023/09/28 06:38:44;;;;;;;6.80;4.00;;;15.30;99.90;;;15.21;100.00;97486.31;5009786;28;20033;-37
2023/09/28 06:41:10;;;;;;;4.53;3.28;;;15.40;99.90;;;15.30;100.00;97498.25;5014324;28;20040;-37
2023/09/28 06:43:36;;;;;;;5.25;3.65;;;15.50;99.90;;;15.34;100.00;97491.81;5010701;28;20033;-37
2023/09/28 06:46:03;;;;;;;5.20;3.83;;;15.50;99.90;;;15.39;100.00;97499.53;4992455;28;20041;-37
2023/09/28 06:48:29;;;;;;;6.18;3.50;;;15.60;99.90;;;15.42;100.00;97500.22;5014573;28;20038;-37
2023/09/28 06:50:58;;;;;;;6.60;3.40;;;15.60;99.90;;;15.41;100.00;97514.44;5014748;28;20079;-38
2023/09/28 06:53:24;;;;;;;7.45;3.35;;;15.60;99.90;;;15.40;100.00;97514.56;5014629;28;20030;-38
2023/09/28 06:55:52;;;;;;;10.45;4.05;;;15.60;99.90;;;15.41;100.00;97522.41;5014422;28;20561;-37
2023/09/28 06:58:18;;;;;;;7.30;4.53;;;15.70;99.90;;;15.35;100.00;97498.84;5018312;28;20172;-37
2023/09/28 07:00:47;;;;;;;5.20;3.60;;;15.70;99.90;;;15.49;100.00;97514.06;5013662;28;20635;-37
2023/09/28 07:03:14;;;;;;;6.00;4.05;;;15.80;99.90;;;15.57;100.00;97516.28;5016604;28;20040;-37
2023/09/28 07:05:40;;;;;;;6.75;3.40;;;15.80;99.90;;;15.63;100.00;97513.28;5011682;28;20067;-39
2023/09/28 07:08:06;;;;;;;9.23;4.55;;;15.90;99.90;;;15.67;100.00;97504.19;5015883;28;20631;-37
2023/09/28 07:10:35;;;;;;;6.78;3.78;;;16.00;99.90;;;15.93;100.00;97521.34;5011277;28;20492;-37
2023/09/28 07:13:06;;;;;;;6.28;3.47;;;16.10;99.90;;;16.12;100.00;97523.84;4999842;28;20028;-37
2023/09/28 07:15:33;;;;;;;5.88;3.70;;;16.30;99.90;;;16.33;100.00;97526.19;5014056;28;20037;-37
2023/09/28 07:18:03;;;;;;;8.40;3.30;;;16.50;99.90;;;16.48;100.00;97514.66;5016170;28;20112;-37
2023/09/28 07:20:29;;;;;;;8.02;3.30;;;16.60;99.90;;;16.56;100.00;97515.09;5014692;28;20112;-37
2023/09/28 07:22:56;;;;;;;5.53;3.70;;;16.70;99.90;;;16.54;100.00;97506.31;5014464;28;20034;-38
2023/09/28 07:25:23;;;;;;;5.88;3.35;;;16.80;99.90;;;16.65;100.00;97524.31;5015239;28;20033;-36
2023/09/28 07:27:52;;;;;;;5.45;3.58;;;16.80;99.90;;;16.61;100.00;97517.44;5009296;28;20417;-37
2023/09/28 07:30:19;;;;;;;6.88;3.50;;;16.80;99.90;;;16.56;100.00;97516.88;5007607;28;20074;-36
2023/09/28 07:32:46;;;;;;;7.30;3.85;;;16.70;99.90;;;16.51;100.00;97524.25;4997473;28;20025;-37
2023/09/28 07:35:13;;;;;;;5.30;3.30;;;16.70;99.90;;;16.47;100.00;97536.03;5014012;28;20087;-36
2023/09/28 07:37:42;;;;;;;4.63;3.17;;;16.70;99.90;;;16.49;100.00;97535.03;5006909;28;20318;-37
2023/09/28 07:40:12;;;;;;;7.15;3.25;;;16.70;99.90;;;16.49;100.00;97528.81;5014683;28;20419;-36
2023/09/28 07:42:43;;;;;;;7.68;3.60;;;16.70;99.90;;;16.57;100.00;97538.06;5012210;28;20032;-37
2023/09/28 07:45:13;;;;;;;8.50;3.63;;;16.80;99.90;;;16.58;100.00;97522.94;5013054;28;20124;-36
2023/09/28 07:47:39;;;;;;;7.15;3.95;;;16.80;99.90;;;16.71;100.00;97545.25;5012875;28;20259;-37
2023/09/28 07:50:14;;;;;;;8.00;3.53;;;17.00;99.90;;;16.80;100.00;97549.19;5012953;28;20037;-37
2023/09/28 07:52:43;;;;;;;7.30;3.42;;;17.10;99.90;;;16.87;100.00;97550.56;5015129;28;20052;-37
2023/09/28 07:55:10;;;;;;;8.65;4.00;;;17.10;99.90;;;16.95;100.00;97560.75;5014537;28;20047;-37
2023/09/28 07:57:36;;;;;;;12.82;4.00;;;17.20;99.90;;;17.01;100.00;97556.84;5006939;28;20120;-37
2023/09/28 08:00:06;;;;;;;6.40;3.30;;;17.20;99.90;;;17.03;100.00;97560.28;5007569;28;20064;-39
2023/09/28 08:02:32;;;;;;;5.78;3.28;;;17.30;99.90;;;16.98;100.00;97560.56;5014158;28;20498;-36
2023/09/28 08:04:58;;;;;;;5.20;3.40;;;17.20;99.90;;;16.95;100.00;97550.94;5013802;28;20049;-36
2023/09/28 08:07:24;;;;;;;5.13;3.28;;;17.20;99.90;;;17.01;100.00;97548.84;5015287;28;20747;-36
2023/09/28 08:09:50;;;;;;;5.28;3.10;;;17.20;99.90;;;17.05;100.00;97553.03;5014358;28;20102;-36
2023/09/28 08:12:16;;;;;;;8.38;3.88;;;17.30;99.90;;;17.09;100.00;97539.44;5013986;28;20029;-36
2023/09/28 08:14:42;;;;;;;7.47;3.67;;;17.40;99.90;;;17.23;100.00;97551.94;5011926;28;20044;-37
2023/09/28 08:17:09;;;;;;;7.30;3.15;;;17.40;99.90;;;17.22;100.00;97541.38;5011313;28;20057;-37
2023/09/28 08:19:36;;;;;;;5.25;3.00;;;17.40;99.90;;;17.33;100.00;97553.06;5010607;28;20029;-38
2023/09/28 08:22:03;;;;;;;5.55;3.13;;;17.50;99.90;;;17.43;100.00;97553.38;5018026;28;20088;-37
2023/09/28 08:24:29;;;;;;;6.00;3.30;;;17.60;99.90;;;17.49;100.00;97552.97;5017617;28;20230;-37
2023/09/28 08:26:55;;;;;;;5.60;3.72;;;17.60;99.90;;;17.48;100.00;97551.28;5014538;28;20067;-38
2023/09/28 08:29:21;;;;;;;7.55;3.50;;;17.60;99.90;;;17.45;100.00;97550.59;5019726;28;20033;-39
2023/09/28 08:31:46;;;;;;;7.93;3.47;;;17.60;99.90;;;17.33;100.00;97534.41;5016991;28;20420;-38
2023/09/28 08:34:13;;;;;;;5.55;3.40;;;17.60;99.90;;;17.61;100.00;97561.19;5015853;28;20072;-37
2023/09/28 08:36:39;;;;;;;8.05;3.10;;;17.70;99.90;;;17.80;100.00;97571.50;5014775;28;20017;-37
2023/09/28 08:39:06;;;;;;;5.07;3.58;;;17.90;99.90;;;17.97;100.00;97568.66;5017121;28;20417;-38
2023/09/28 08:41:46;;;;;;;5.25;3.13;;;18.10;99.90;;;18.17;100.00;97566.53;5012688;28;20061;-36
2023/09/28 08:44:13;;;;;;;5.90;3.15;;;18.30;99.90;;;18.33;100.00;97561.91;5017040;28;20372;-38
2023/09/28 08:46:39;;;;;;;4.68;3.20;;;18.40;99.90;;;18.48;100.00;97566.22;5004607;28;20577;-38
2023/09/28 08:49:07;;;;;;;5.03;3.17;;;18.60;99.90;;;18.70;100.00;97562.97;5004799;28;20115;-37
2023/09/28 08:51:36;;;;;;;6.10;3.47;;;18.80;99.90;;;18.88;100.00;97560.91;5006703;28;20026;-39
2023/09/28 08:54:04;;;;;;;4.57;3.45;;;19.00;99.90;;;19.06;100.00;97563.28;4996512;28;20025;-38
2023/09/28 08:56:35;;;;;;;8.45;3.70;;;19.10;99.90;;;19.23;100.00;97570.97;5009566;28;20159;-37
2023/09/28 08:59:02;;;;;;;6.10;3.72;;;19.30;99.90;;;19.35;98.49;97573.78;5014424;28;20025;-37
2023/09/28 09:01:30;;;;;;;7.85;3.67;;;19.40;99.90;;;19.45;92.85;97569.47;5005717;28;20665;-37
2023/09/28 09:03:57;;;;;;;4.18;3.00;;;19.50;99.90;;;19.49;92.77;97560.28;5007221;28;20960;-36
2023/09/28 09:06:24;;;;;;;5.95;3.13;;;19.60;99.90;;;19.53;90.97;97559.09;5017613;28;20037;-37
2023/09/28 09:08:51;;;;;;;5.82;3.47;;;19.60;99.90;;;19.57;91.61;97562.41;5002210;28;20087;-38
2023/09/28 09:11:17;;;;;;;4.53;3.00;;;19.60;99.90;;;19.61;92.64;97561.22;5003675;28;20025;-37
2023/09/28 09:13:54;;;;;;;8.20;3.53;;;19.70;99.90;;;19.69;89.47;97572.25;5015850;28;20026;-37
2023/09/28 09:16:22;;;;;;;5.22;3.15;;;19.80;99.90;;;19.75;88.23;97563.81;5019539;28;20107;-37
2023/09/28 09:18:48;;;;;;;9.20;3.72;;;19.80;99.90;;;19.81;85.97;97567.84;5003636;28;20057;-37
2023/09/28 09:21:14;;;;;;;6.07;3.50;;;19.90;99.90;;;19.81;81.74;97570.53;5015539;28;20195;-37
2023/09/28 09:23:40;;;;;;;5.32;3.60;;;19.90;99.90;;;19.84;81.48;97568.47;5015425;28;20072;-37
2023/09/28 09:26:17;;;;;;;7.68;3.80;;;19.90;99.90;;;19.93;83.50;97571.47;5016944;28;20069;-37
2023/09/28 09:28:44;;;;;;;4.95;3.10;;;20.00;99.90;;;20.02;85.55;97568.13;5002932;28;20508;-36
2023/09/28 09:31:10;;;;;;;6.10;2.92;;;20.10;99.90;;;20.07;81.83;97571.34;5017935;28;20071;-38
2023/09/28 09:33:36;;;;;;;8.77;3.30;;;20.10;99.90;;;20.15;81.81;97577.00;5018208;28;20049;-37
2023/09/28 09:36:02;;;;;;;5.65;3.28;;;20.20;99.90;;;20.23;81.93;97576.44;5017010;28;20029;-37
2023/09/28 09:38:29;;;;;;;5.82;3.40;;;20.30;99.90;;;20.30;82.33;97574.16;5016590;28;20042;-37
2023/09/28 09:41:04;;;;;;;6.90;3.20;;;20.30;99.90;;;20.37;81.15;97572.75;5012288;28;20041;-37
2023/09/28 09:43:40;;;;;;;4.30;2.70;;;20.40;99.90;;;20.31;79.42;97541.88;5018071;28;20037;-37
2023/09/28 09:46:08;;;;;;;4.88;3.10;;;20.50;99.90;;;20.50;78.05;97554.78;5021193;28;20488;-37
2023/09/28 09:48:43;;;;;;;5.47;3.17;;;20.60;99.90;;;20.66;74.97;97567.06;5017132;28;20033;-38
2023/09/28 09:51:17;;;;;;;6.25;3.08;;;20.70;99.90;;;20.79;74.13;97574.03;5019500;28;20044;-37
2023/09/28 09:53:45;;;;;;;6.15;3.40;;;20.80;99.90;;;20.86;72.38;97570.91;5016090;28;20024;-37
2023/09/28 09:56:15;;;;;;;6.85;3.20;;;20.90;99.90;;;20.92;71.66;97575.78;5017206;28;20289;-37
2023/09/28 09:58:47;;;;;;;6.40;3.38;;;21.00;99.90;;;20.98;71.55;97575.34;5016159;28;20037;-37
2023/09/28 10:01:17;;;;;;;7.20;3.33;;;21.00;99.90;;;20.97;74.38;97561.06;5018222;28;20116;-38
2023/09/28 10:03:51;;;;;;;7.28;3.20;;;21.10;99.90;;;21.11;72.14;97578.78;5017985;28;20037;-37
2023/09/28 10:06:19;;;;;;;7.28;3.13;;;21.20;99.90;;;21.17;71.95;97572.06;5017481;28;20041;-39
2023/09/28 10:08:49;;;;;;;5.43;3.28;;;21.20;99.90;;;21.24;70.96;97570.63;5017205;28;20116;-37
2023/09/28 10:11:16;;;;;;;5.38;3.03;;;21.30;99.90;;;21.36;67.81;97567.00;5017934;28;20087;-37
2023/09/28 10:13:43;;;;;;;4.47;3.10;;;21.40;99.90;;;21.47;67.55;97563.50;5018032;28;20040;-37
2023/09/28 10:16:12;;;;;;;4.93;3.08;;;21.50;99.90;;;21.55;62.61;97562.88;5017880;28;20032;-37